sensor_id;sensor_type;location;lat;lon;timestamp;P1;durP1;ratioP1;P2;durP2;ratioP2
2888;SDS011;1453;42.708;23.282;2023-03-01T00:01:18;7.63;;;5.22;;
2888;SDS011;1453;42.708;23.282;2023-03-01T00:03:47;5.00;;;4.18;;
2888;SDS011;1453;42.708;23.282;2023-03-01T00:06:14;4.75;;;3.85;;
2888;SDS011;1453;42.708;23.282;2023-03-01T00:08:40;5.85;;;4.85;;
2888;SDS011;1453;42.708;23.282;2023-03-01T00:13:42;7.78;;;4.68;;
2888;SDS011;1453;42.708;23.282;2023-03-01T00:16:10;5.55;;;4.45;;
2888;SDS011;1453;42.708;23.282;2023-03-01T00:18:40;6.90;;;3.97;;
2888;SDS011;1453;42.708;23.282;2023-03-01T00:21:06;6.53;;;4.67;;
2888;SDS011;1453;42.708;23.282;2023-03-01T00:23:33;7.40;;;4.60;;
2888;SDS011;1453;42.708;23.282;2023-03-01T00:26:00;5.82;;;4.47;;
2888;SDS011;1453;42.708;23.282;2023-03-01T00:28:26;5.30;;;3.75;;
2888;SDS011;1453;42.708;23.282;2023-03-01T00:30:52;4.83;;;3.40;;
2888;SDS011;1453;42.708;23.282;2023-03-01T00:33:18;4.00;;;3.50;;
2888;SDS011;1453;42.708;23.282;2023-03-01T00:35:44;4.40;;;3.88;;
2888;SDS011;1453;42.708;23.282;2023-03-01T00:38:10;3.77;;;3.37;;
2888;SDS011;1453;42.708;23.282;2023-03-01T00:40:36;3.30;;;2.70;;
2888;SDS011;1453;42.708;23.282;2023-03-01T00:43:02;4.60;;;3.13;;
2888;SDS011;1453;42.708;23.282;2023-03-01T00:45:29;4.38;;;3.17;;
2888;SDS011;1453;42.708;23.282;2023-03-01T00:47:56;3.78;;;3.40;;
2888;SDS011;1453;42.708;23.282;2023-03-01T00:50:23;3.90;;;3.40;;
2888;SDS011;1453;42.708;23.282;2023-03-01T00:52:53;4.07;;;3.40;;
2888;SDS011;1453;42.708;23.282;2023-03-01T00:55:20;4.63;;;3.30;;
2888;SDS011;1453;42.708;23.282;2023-03-01T00:57:46;9.32;;;3.13;;
2888;SDS011;1453;42.708;23.282;2023-03-01T01:00:12;4.60;;;3.93;;
2888;SDS011;1453;42.708;23.282;2023-03-01T01:02:38;4.72;;;3.30;;
2888;SDS011;1453;42.708;23.282;2023-03-01T01:05:04;3.72;;;3.22;;
2888;SDS011;1453;42.708;23.282;2023-03-01T01:07:31;4.38;;;3.60;;
2888;SDS011;1453;42.708;23.282;2023-03-01T01:09:57;5.97;;;3.97;;
2888;SDS011;1453;42.708;23.282;2023-03-01T01:12:22;4.43;;;3.40;;
2888;SDS011;1453;42.708;23.282;2023-03-01T01:14:48;4.43;;;3.57;;
2888;SDS011;1453;42.708;23.282;2023-03-01T01:17:14;6.03;;;4.27;;
2888;SDS011;1453;42.708;23.282;2023-03-01T01:19:40;4.90;;;3.80;;
2888;SDS011;1453;42.708;23.282;2023-03-01T01:22:06;4.67;;;3.70;;
2888;SDS011;1453;42.708;23.282;2023-03-01T01:24:32;3.90;;;2.97;;
2888;SDS011;1453;42.708;23.282;2023-03-01T01:26:57;4.53;;;3.47;;
2888;SDS011;1453;42.708;23.282;2023-03-01T01:29:23;4.07;;;3.67;;
2888;SDS011;1453;42.708;23.282;2023-03-01T01:31:49;4.30;;;3.33;;
2888;SDS011;1453;42.708;23.282;2023-03-01T01:34:16;4.10;;;3.70;;
2888;SDS011;1453;42.708;23.282;2023-03-01T01:36:49;3.33;;;2.92;;
2888;SDS011;1453;42.708;23.282;2023-03-01T01:39:18;4.97;;;3.60;;
2888;SDS011;1453;42.708;23.282;2023-03-01T01:41:45;3.80;;;3.25;;
2888;SDS011;1453;42.708;23.282;2023-03-01T01:44:14;3.88;;;3.00;;
2888;SDS011;1453;42.708;23.282;2023-03-01T01:49:22;4.80;;;3.80;;
2888;SDS011;1453;42.708;23.282;2023-03-01T01:52:09;4.47;;;3.33;;
2888;SDS011;1453;42.708;23.282;2023-03-01T01:54:51;3.55;;;3.20;;
2888;SDS011;1453;42.708;23.282;2023-03-01T01:57:25;4.30;;;3.47;;
2888;SDS011;1453;42.708;23.282;2023-03-01T01:59:58;4.88;;;3.92;;
2888;SDS011;1453;42.708;23.282;2023-03-01T02:02:28;3.80;;;3.10;;
2888;SDS011;1453;42.708;23.282;2023-03-01T02:04:56;5.50;;;3.80;;
2888;SDS011;1453;42.708;23.282;2023-03-01T02:07:38;7.65;;;5.85;;
2888;SDS011;1453;42.708;23.282;2023-03-01T02:10:05;5.00;;;4.45;;
2888;SDS011;1453;42.708;23.282;2023-03-01T02:12:31;6.65;;;4.88;;
2888;SDS011;1453;42.708;23.282;2023-03-01T02:14:58;5.70;;;4.60;;
2888;SDS011;1453;42.708;23.282;2023-03-01T02:17:24;7.00;;;5.73;;
2888;SDS011;1453;42.708;23.282;2023-03-01T02:22:43;6.15;;;4.97;;
2888;SDS011;1453;42.708;23.282;2023-03-01T02:30:32;3.42;;;3.10;;
2888;SDS011;1453;42.708;23.282;2023-03-01T02:32:59;4.13;;;3.65;;
2888;SDS011;1453;42.708;23.282;2023-03-01T02:35:32;3.53;;;2.90;;
2888;SDS011;1453;42.708;23.282;2023-03-01T02:38:03;3.53;;;3.20;;
2888;SDS011;1453;42.708;23.282;2023-03-01T02:40:33;3.85;;;3.22;;
2888;SDS011;1453;42.708;23.282;2023-03-01T02:43:01;3.72;;;3.25;;
2888;SDS011;1453;42.708;23.282;2023-03-01T02:45:29;3.88;;;3.08;;
2888;SDS011;1453;42.708;23.282;2023-03-01T02:47:55;4.80;;;4.13;;
2888;SDS011;1453;42.708;23.282;2023-03-01T02:50:25;4.15;;;3.47;;
2888;SDS011;1453;42.708;23.282;2023-03-01T02:56:12;4.60;;;3.80;;
2888;SDS011;1453;42.708;23.282;2023-03-01T02:58:42;3.95;;;3.03;;
2888;SDS011;1453;42.708;23.282;2023-03-01T03:01:16;4.15;;;3.13;;
2888;SDS011;1453;42.708;23.282;2023-03-01T03:03:45;4.00;;;3.28;;
2888;SDS011;1453;42.708;23.282;2023-03-01T03:06:12;2.90;;;2.60;;
2888;SDS011;1453;42.708;23.282;2023-03-01T03:08:38;4.30;;;3.35;;
2888;SDS011;1453;42.708;23.282;2023-03-01T03:11:04;4.37;;;3.60;;
2888;SDS011;1453;42.708;23.282;2023-03-01T03:13:29;5.07;;;3.60;;
2888;SDS011;1453;42.708;23.282;2023-03-01T03:15:57;3.38;;;3.00;;
2888;SDS011;1453;42.708;23.282;2023-03-01T03:18:23;3.35;;;3.00;;
2888;SDS011;1453;42.708;23.282;2023-03-01T03:20:52;3.03;;;2.58;;
2888;SDS011;1453;42.708;23.282;2023-03-01T03:23:20;3.75;;;3.38;;
2888;SDS011;1453;42.708;23.282;2023-03-01T03:25:49;3.50;;;2.97;;
2888;SDS011;1453;42.708;23.282;2023-03-01T03:28:16;3.83;;;3.38;;
2888;SDS011;1453;42.708;23.282;2023-03-01T03:30:42;4.22;;;3.30;;
2888;SDS011;1453;42.708;23.282;2023-03-01T03:33:11;5.28;;;3.67;;
2888;SDS011;1453;42.708;23.282;2023-03-01T03:35:43;3.55;;;3.25;;
2888;SDS011;1453;42.708;23.282;2023-03-01T03:38:12;4.43;;;4.00;;
2888;SDS011;1453;42.708;23.282;2023-03-01T03:40:50;5.30;;;3.92;;
2888;SDS011;1453;42.708;23.282;2023-03-01T03:43:28;5.32;;;3.88;;
2888;SDS011;1453;42.708;23.282;2023-03-01T03:46:15;3.00;;;2.65;;
2888;SDS011;1453;42.708;23.282;2023-03-01T03:48:42;4.75;;;3.47;;
2888;SDS011;1453;42.708;23.282;2023-03-01T03:51:10;5.25;;;3.80;;
2888;SDS011;1453;42.708;23.282;2023-03-01T03:53:38;3.75;;;3.35;;
2888;SDS011;1453;42.708;23.282;2023-03-01T03:56:05;4.07;;;3.47;;
2888;SDS011;1453;42.708;23.282;2023-03-01T04:01:36;4.18;;;3.38;;
2888;SDS011;1453;42.708;23.282;2023-03-01T04:04:20;6.15;;;5.03;;
2888;SDS011;1453;42.708;23.282;2023-03-01T04:06:46;6.27;;;4.70;;
2888;SDS011;1453;42.708;23.282;2023-03-01T04:09:13;5.05;;;3.80;;
2888;SDS011;1453;42.708;23.282;2023-03-01T04:11:39;5.00;;;3.50;;
2888;SDS011;1453;42.708;23.282;2023-03-01T04:14:04;3.50;;;3.20;;
2888;SDS011;1453;42.708;23.282;2023-03-01T04:16:30;4.50;;;3.50;;
2888;SDS011;1453;42.708;23.282;2023-03-01T04:18:56;4.33;;;3.47;;
2888;SDS011;1453;42.708;23.282;2023-03-01T04:21:24;3.70;;;3.15;;
2888;SDS011;1453;42.708;23.282;2023-03-01T04:23:50;4.70;;;3.92;;
2888;SDS011;1453;42.708;23.282;2023-03-01T04:26:18;7.90;;;3.45;;
2888;SDS011;1453;42.708;23.282;2023-03-01T04:28:45;3.92;;;3.15;;
2888;SDS011;1453;42.708;23.282;2023-03-01T04:31:14;4.05;;;3.28;;
2888;SDS011;1453;42.708;23.282;2023-03-01T04:33:45;6.75;;;3.75;;
2888;SDS011;1453;42.708;23.282;2023-03-01T04:36:18;3.50;;;3.20;;
2888;SDS011;1453;42.708;23.282;2023-03-01T04:38:45;4.32;;;3.65;;
2888;SDS011;1453;42.708;23.282;2023-03-01T04:41:15;4.65;;;3.80;;
2888;SDS011;1453;42.708;23.282;2023-03-01T04:43:43;4.15;;;3.22;;
2888;SDS011;1453;42.708;23.282;2023-03-01T04:46:11;6.45;;;3.78;;
2888;SDS011;1453;42.708;23.282;2023-03-01T04:48:41;3.92;;;3.08;;
2888;SDS011;1453;42.708;23.282;2023-03-01T04:51:08;4.93;;;3.78;;
2888;SDS011;1453;42.708;23.282;2023-03-01T04:53:38;4.05;;;3.60;;
2888;SDS011;1453;42.708;23.282;2023-03-01T04:56:05;6.10;;;4.45;;
2888;SDS011;1453;42.708;23.282;2023-03-01T04:58:31;5.10;;;3.92;;
2888;SDS011;1453;42.708;23.282;2023-03-01T05:00:57;5.55;;;3.30;;
2888;SDS011;1453;42.708;23.282;2023-03-01T05:03:23;5.87;;;4.07;;
2888;SDS011;1453;42.708;23.282;2023-03-01T05:05:50;5.07;;;4.33;;
2888;SDS011;1453;42.708;23.282;2023-03-01T05:08:17;4.28;;;3.55;;
2888;SDS011;1453;42.708;23.282;2023-03-01T05:10:46;5.07;;;4.15;;
2888;SDS011;1453;42.708;23.282;2023-03-01T05:13:15;6.55;;;4.00;;
2888;SDS011;1453;42.708;23.282;2023-03-01T05:15:54;8.70;;;4.95;;
2888;SDS011;1453;42.708;23.282;2023-03-01T05:18:22;9.93;;;4.40;;
2888;SDS011;1453;42.708;23.282;2023-03-01T05:21:06;4.72;;;3.70;;
2888;SDS011;1453;42.708;23.282;2023-03-01T05:23:35;9.45;;;4.78;;
2888;SDS011;1453;42.708;23.282;2023-03-01T05:26:02;5.40;;;4.30;;
2888;SDS011;1453;42.708;23.282;2023-03-01T05:28:30;5.47;;;4.30;;
2888;SDS011;1453;42.708;23.282;2023-03-01T05:30:57;7.28;;;5.30;;
2888;SDS011;1453;42.708;23.282;2023-03-01T05:33:24;11.35;;;6.70;;
2888;SDS011;1453;42.708;23.282;2023-03-01T05:35:50;8.40;;;5.40;;
2888;SDS011;1453;42.708;23.282;2023-03-01T05:38:18;6.13;;;4.85;;
2888;SDS011;1453;42.708;23.282;2023-03-01T05:40:45;17.65;;;5.25;;
2888;SDS011;1453;42.708;23.282;2023-03-01T05:43:14;9.75;;;5.00;;
2888;SDS011;1453;42.708;23.282;2023-03-01T05:45:41;9.40;;;4.65;;
2888;SDS011;1453;42.708;23.282;2023-03-01T05:48:08;8.57;;;5.75;;
2888;SDS011;1453;42.708;23.282;2023-03-01T05:50:36;10.13;;;5.10;;
2888;SDS011;1453;42.708;23.282;2023-03-01T05:53:26;7.13;;;5.75;;
2888;SDS011;1453;42.708;23.282;2023-03-01T05:55:51;6.20;;;4.78;;
2888;SDS011;1453;42.708;23.282;2023-03-01T05:58:18;8.00;;;4.60;;
2888;SDS011;1453;42.708;23.282;2023-03-01T06:00:45;5.78;;;3.78;;
2888;SDS011;1453;42.708;23.282;2023-03-01T06:03:13;5.97;;;4.68;;
2888;SDS011;1453;42.708;23.282;2023-03-01T06:05:41;7.88;;;4.85;;
2888;SDS011;1453;42.708;23.282;2023-03-01T06:08:09;7.57;;;5.30;;
2888;SDS011;1453;42.708;23.282;2023-03-01T06:10:36;6.20;;;4.30;;
2888;SDS011;1453;42.708;23.282;2023-03-01T06:13:02;6.78;;;4.85;;
2888;SDS011;1453;42.708;23.282;2023-03-01T06:15:28;6.23;;;4.77;;
2888;SDS011;1453;42.708;23.282;2023-03-01T06:17:54;7.83;;;5.20;;
2888;SDS011;1453;42.708;23.282;2023-03-01T06:20:24;5.00;;;3.90;;
2888;SDS011;1453;42.708;23.282;2023-03-01T06:22:52;4.68;;;3.75;;
2888;SDS011;1453;42.708;23.282;2023-03-01T06:25:19;9.82;;;5.50;;
2888;SDS011;1453;42.708;23.282;2023-03-01T06:27:47;6.75;;;5.25;;
2888;SDS011;1453;42.708;23.282;2023-03-01T06:32:42;8.45;;;7.50;;
2888;SDS011;1453;42.708;23.282;2023-03-01T06:35:13;13.55;;;5.90;;
2888;SDS011;1453;42.708;23.282;2023-03-01T06:37:43;3.75;;;3.17;;
2888;SDS011;1453;42.708;23.282;2023-03-01T06:40:10;8.57;;;4.43;;
2888;SDS011;1453;42.708;23.282;2023-03-01T06:42:39;4.63;;;3.83;;
2888;SDS011;1453;42.708;23.282;2023-03-01T06:45:07;4.47;;;3.80;;
2888;SDS011;1453;42.708;23.282;2023-03-01T06:47:34;5.57;;;3.90;;
2888;SDS011;1453;42.708;23.282;2023-03-01T06:50:00;12.73;;;4.20;;
2888;SDS011;1453;42.708;23.282;2023-03-01T06:52:27;6.85;;;4.40;;
2888;SDS011;1453;42.708;23.282;2023-03-01T06:54:53;6.00;;;3.43;;
2888;SDS011;1453;42.708;23.282;2023-03-01T06:57:19;4.17;;;3.67;;
2888;SDS011;1453;42.708;23.282;2023-03-01T06:59:46;4.53;;;3.80;;
2888;SDS011;1453;42.708;23.282;2023-03-01T07:02:12;9.18;;;4.35;;
2888;SDS011;1453;42.708;23.282;2023-03-01T07:04:40;5.57;;;4.63;;
2888;SDS011;1453;42.708;23.282;2023-03-01T07:07:06;5.88;;;4.38;;
2888;SDS011;1453;42.708;23.282;2023-03-01T07:09:33;4.73;;;4.17;;
2888;SDS011;1453;42.708;23.282;2023-03-01T07:11:59;6.60;;;4.75;;
2888;SDS011;1453;42.708;23.282;2023-03-01T07:14:25;7.43;;;4.70;;
2888;SDS011;1453;42.708;23.282;2023-03-01T07:16:51;8.20;;;4.63;;
2888;SDS011;1453;42.708;23.282;2023-03-01T07:19:18;8.07;;;4.20;;
2888;SDS011;1453;42.708;23.282;2023-03-01T07:21:45;8.95;;;4.95;;
2888;SDS011;1453;42.708;23.282;2023-03-01T07:24:11;10.00;;;5.25;;
2888;SDS011;1453;42.708;23.282;2023-03-01T07:26:37;4.72;;;4.22;;
2888;SDS011;1453;42.708;23.282;2023-03-01T07:29:04;7.37;;;5.43;;
2888;SDS011;1453;42.708;23.282;2023-03-01T07:31:31;6.78;;;4.90;;
2888;SDS011;1453;42.708;23.282;2023-03-01T07:33:57;7.60;;;4.90;;
2888;SDS011;1453;42.708;23.282;2023-03-01T07:36:24;5.20;;;4.47;;
2888;SDS011;1453;42.708;23.282;2023-03-01T07:38:50;8.10;;;5.70;;
2888;SDS011;1453;42.708;23.282;2023-03-01T07:41:16;6.30;;;4.80;;
2888;SDS011;1453;42.708;23.282;2023-03-01T07:43:42;5.53;;;4.40;;
2888;SDS011;1453;42.708;23.282;2023-03-01T07:46:08;7.97;;;5.93;;
2888;SDS011;1453;42.708;23.282;2023-03-01T07:48:34;7.65;;;4.85;;
2888;SDS011;1453;42.708;23.282;2023-03-01T07:51:01;7.00;;;4.73;;
2888;SDS011;1453;42.708;23.282;2023-03-01T07:53:29;5.03;;;3.65;;
2888;SDS011;1453;42.708;23.282;2023-03-01T07:58:33;6.20;;;3.70;;
2888;SDS011;1453;42.708;23.282;2023-03-01T08:01:04;5.78;;;4.38;;
2888;SDS011;1453;42.708;23.282;2023-03-01T08:03:33;7.82;;;4.30;;
2888;SDS011;1453;42.708;23.282;2023-03-01T08:06:00;6.82;;;3.90;;
2888;SDS011;1453;42.708;23.282;2023-03-01T08:08:28;6.90;;;4.95;;
2888;SDS011;1453;42.708;23.282;2023-03-01T08:10:57;6.72;;;3.83;;
2888;SDS011;1453;42.708;23.282;2023-03-01T08:13:24;6.57;;;3.60;;
2888;SDS011;1453;42.708;23.282;2023-03-01T08:15:50;3.03;;;2.72;;
2888;SDS011;1453;42.708;23.282;2023-03-01T08:18:18;6.07;;;3.55;;
2888;SDS011;1453;42.708;23.282;2023-03-01T08:20:45;4.80;;;4.05;;
2888;SDS011;1453;42.708;23.282;2023-03-01T08:23:11;5.60;;;4.32;;
2888;SDS011;1453;42.708;23.282;2023-03-01T08:25:37;5.60;;;4.22;;
2888;SDS011;1453;42.708;23.282;2023-03-01T08:28:04;8.07;;;4.53;;
2888;SDS011;1453;42.708;23.282;2023-03-01T08:30:30;4.93;;;3.60;;
2888;SDS011;1453;42.708;23.282;2023-03-01T08:32:56;4.03;;;3.13;;
2888;SDS011;1453;42.708;23.282;2023-03-01T08:35:22;5.07;;;3.63;;
2888;SDS011;1453;42.708;23.282;2023-03-01T08:37:48;4.70;;;3.75;;
2888;SDS011;1453;42.708;23.282;2023-03-01T08:40:13;5.80;;;3.40;;
2888;SDS011;1453;42.708;23.282;2023-03-01T08:42:40;4.72;;;3.35;;
2888;SDS011;1453;42.708;23.282;2023-03-01T08:45:07;7.45;;;3.88;;
2888;SDS011;1453;42.708;23.282;2023-03-01T08:47:35;5.15;;;4.10;;
2888;SDS011;1453;42.708;23.282;2023-03-01T08:50:01;5.35;;;4.03;;
2888;SDS011;1453;42.708;23.282;2023-03-01T08:52:27;4.50;;;4.10;;
2888;SDS011;1453;42.708;23.282;2023-03-01T08:54:53;5.57;;;4.07;;
2888;SDS011;1453;42.708;23.282;2023-03-01T08:57:19;5.60;;;4.50;;
2888;SDS011;1453;42.708;23.282;2023-03-01T08:59:45;5.75;;;4.20;;
2888;SDS011;1453;42.708;23.282;2023-03-01T09:02:12;6.90;;;3.50;;
2888;SDS011;1453;42.708;23.282;2023-03-01T09:04:43;4.93;;;4.43;;
2888;SDS011;1453;42.708;23.282;2023-03-01T09:07:09;9.27;;;4.03;;
2888;SDS011;1453;42.708;23.282;2023-03-01T09:09:35;5.10;;;3.45;;
2888;SDS011;1453;42.708;23.282;2023-03-01T09:12:02;5.20;;;3.87;;
2888;SDS011;1453;42.708;23.282;2023-03-01T09:14:29;3.80;;;3.42;;
2888;SDS011;1453;42.708;23.282;2023-03-01T09:16:55;4.13;;;3.60;;
2888;SDS011;1453;42.708;23.282;2023-03-01T09:19:21;3.92;;;3.38;;
2888;SDS011;1453;42.708;23.282;2023-03-01T09:21:46;3.50;;;2.90;;
2888;SDS011;1453;42.708;23.282;2023-03-01T09:24:18;6.88;;;3.42;;
2888;SDS011;1453;42.708;23.282;2023-03-01T09:26:46;3.13;;;2.80;;
2888;SDS011;1453;42.708;23.282;2023-03-01T09:29:18;4.70;;;3.42;;
2888;SDS011;1453;42.708;23.282;2023-03-01T09:31:44;3.63;;;3.30;;
2888;SDS011;1453;42.708;23.282;2023-03-01T09:34:10;4.18;;;3.45;;
2888;SDS011;1453;42.708;23.282;2023-03-01T09:36:36;3.90;;;3.50;;
2888;SDS011;1453;42.708;23.282;2023-03-01T09:39:03;3.88;;;3.47;;
2888;SDS011;1453;42.708;23.282;2023-03-01T09:44:40;3.25;;;2.72;;
2888;SDS011;1453;42.708;23.282;2023-03-01T09:47:16;4.30;;;3.20;;
2888;SDS011;1453;42.708;23.282;2023-03-01T09:49:56;5.15;;;2.83;;
2888;SDS011;1453;42.708;23.282;2023-03-01T09:52:47;5.32;;;2.88;;
2888;SDS011;1453;42.708;23.282;2023-03-01T10:01:52;4.50;;;3.33;;
2888;SDS011;1453;42.708;23.282;2023-03-01T10:04:49;3.80;;;2.50;;
2888;SDS011;1453;42.708;23.282;2023-03-01T10:10:37;4.60;;;2.47;;
2888;SDS011;1453;42.708;23.282;2023-03-01T10:13:17;2.30;;;2.10;;
2888;SDS011;1453;42.708;23.282;2023-03-01T10:15:54;2.67;;;2.15;;
2888;SDS011;1453;42.708;23.282;2023-03-01T10:18:28;2.53;;;2.15;;
2888;SDS011;1453;42.708;23.282;2023-03-01T10:21:05;3.60;;;2.60;;
2888;SDS011;1453;42.708;23.282;2023-03-01T10:23:43;5.57;;;4.00;;
2888;SDS011;1453;42.708;23.282;2023-03-01T10:31:20;4.33;;;3.00;;
2888;SDS011;1453;42.708;23.282;2023-03-01T10:33:54;2.90;;;2.58;;
2888;SDS011;1453;42.708;23.282;2023-03-01T10:36:22;6.33;;;2.63;;
2888;SDS011;1453;42.708;23.282;2023-03-01T10:38:51;4.53;;;3.17;;
2888;SDS011;1453;42.708;23.282;2023-03-01T10:41:22;3.33;;;2.80;;
2888;SDS011;1453;42.708;23.282;2023-03-01T10:43:53;3.40;;;2.30;;
2888;SDS011;1453;42.708;23.282;2023-03-01T10:49:34;2.90;;;2.60;;
2888;SDS011;1453;42.708;23.282;2023-03-01T10:51:46;3.03;;;2.30;;
2888;SDS011;1453;42.708;23.282;2023-03-01T10:54:19;3.33;;;2.67;;
2888;SDS011;1453;42.708;23.282;2023-03-01T10:56:57;3.90;;;2.25;;
2888;SDS011;1453;42.708;23.282;2023-03-01T10:59:30;3.73;;;2.70;;
2888;SDS011;1453;42.708;23.282;2023-03-01T11:02:23;3.47;;;2.17;;
2888;SDS011;1453;42.708;23.282;2023-03-01T11:05:00;2.60;;;2.10;;
2888;SDS011;1453;42.708;23.282;2023-03-01T11:07:56;2.03;;;1.70;;
2888;SDS011;1453;42.708;23.282;2023-03-01T11:10:28;2.20;;;1.90;;
2888;SDS011;1453;42.708;23.282;2023-03-01T11:13:07;2.78;;;1.80;;
2888;SDS011;1453;42.708;23.282;2023-03-01T11:16:06;4.07;;;2.10;;
2888;SDS011;1453;42.708;23.282;2023-03-01T11:18:35;3.45;;;2.15;;
2888;SDS011;1453;42.708;23.282;2023-03-01T11:21:01;2.90;;;2.13;;
2888;SDS011;1453;42.708;23.282;2023-03-01T11:23:29;4.07;;;2.00;;
2888;SDS011;1453;42.708;23.282;2023-03-01T11:25:59;2.28;;;2.03;;
2888;SDS011;1453;42.708;23.282;2023-03-01T11:28:29;2.50;;;1.90;;
2888;SDS011;1453;42.708;23.282;2023-03-01T11:33:47;6.38;;;2.25;;
2888;SDS011;1453;42.708;23.282;2023-03-01T11:36:51;3.38;;;2.33;;
2888;SDS011;1453;42.708;23.282;2023-03-01T11:42:21;4.03;;;2.58;;
2888;SDS011;1453;42.708;23.282;2023-03-01T11:44:59;4.75;;;2.80;;
2888;SDS011;1453;42.708;23.282;2023-03-01T11:48:21;4.10;;;2.20;;
2888;SDS011;1453;42.708;23.282;2023-03-01T11:50:42;3.13;;;2.30;;
2888;SDS011;1453;42.708;23.282;2023-03-01T12:19:24;4.82;;;2.65;;
2888;SDS011;1453;42.708;23.282;2023-03-01T12:34:15;6.05;;;3.45;;
2888;SDS011;1453;42.708;23.282;2023-03-01T12:51:28;4.80;;;3.70;;
2888;SDS011;1453;42.708;23.282;2023-03-01T12:53:58;6.67;;;3.70;;
2888;SDS011;1453;42.708;23.282;2023-03-01T12:56:32;4.50;;;3.33;;
2888;SDS011;1453;42.708;23.282;2023-03-01T13:07:44;4.70;;;3.40;;
2888;SDS011;1453;42.708;23.282;2023-03-01T13:11:11;4.97;;;3.87;;
2888;SDS011;1453;42.708;23.282;2023-03-01T13:13:30;5.27;;;4.00;;
2888;SDS011;1453;42.708;23.282;2023-03-01T13:15:56;5.03;;;4.07;;
2888;SDS011;1453;42.708;23.282;2023-03-01T13:19:12;6.17;;;3.83;;
2888;SDS011;1453;42.708;23.282;2023-03-01T13:21:46;4.97;;;3.63;;
2888;SDS011;1453;42.708;23.282;2023-03-01T13:29:48;10.20;;;4.13;;
2888;SDS011;1453;42.708;23.282;2023-03-01T13:35:01;5.43;;;4.18;;
2888;SDS011;1453;42.708;23.282;2023-03-01T13:37:31;6.00;;;3.75;;
2888;SDS011;1453;42.708;23.282;2023-03-01T13:40:05;6.13;;;4.72;;
2888;SDS011;1453;42.708;23.282;2023-03-01T13:42:52;5.35;;;4.07;;
2888;SDS011;1453;42.708;23.282;2023-03-01T13:48:09;5.97;;;4.22;;
2888;SDS011;1453;42.708;23.282;2023-03-01T13:50:50;3.92;;;3.53;;
2888;SDS011;1453;42.708;23.282;2023-03-01T13:53:24;6.50;;;4.18;;
2888;SDS011;1453;42.708;23.282;2023-03-01T13:56:00;5.22;;;4.15;;
2888;SDS011;1453;42.708;23.282;2023-03-01T13:58:33;5.13;;;4.50;;
2888;SDS011;1453;42.708;23.282;2023-03-01T14:03:52;7.55;;;4.18;;
2888;SDS011;1453;42.708;23.282;2023-03-01T14:06:22;6.50;;;3.87;;
2888;SDS011;1453;42.708;23.282;2023-03-01T14:09:28;6.05;;;4.28;;
2888;SDS011;1453;42.708;23.282;2023-03-01T14:17:31;8.48;;;4.72;;
2888;SDS011;1453;42.708;23.282;2023-03-01T14:20:39;6.15;;;4.22;;
2888;SDS011;1453;42.708;23.282;2023-03-01T14:23:12;5.47;;;3.95;;
2888;SDS011;1453;42.708;23.282;2023-03-01T14:28:28;6.30;;;3.40;;
2888;SDS011;1453;42.708;23.282;2023-03-01T14:31:02;6.38;;;4.07;;
2888;SDS011;1453;42.708;23.282;2023-03-01T14:33:55;5.13;;;3.53;;
2888;SDS011;1453;42.708;23.282;2023-03-01T14:36:29;7.55;;;3.63;;
2888;SDS011;1453;42.708;23.282;2023-03-01T14:38:57;6.32;;;3.92;;
2888;SDS011;1453;42.708;23.282;2023-03-01T14:41:29;7.15;;;4.57;;
2888;SDS011;1453;42.708;23.282;2023-03-01T14:44:02;4.00;;;3.58;;
2888;SDS011;1453;42.708;23.282;2023-03-01T14:46:33;6.25;;;3.60;;
2888;SDS011;1453;42.708;23.282;2023-03-01T14:51:50;5.25;;;3.90;;
2888;SDS011;1453;42.708;23.282;2023-03-01T14:57:00;6.47;;;3.90;;
2888;SDS011;1453;42.708;23.282;2023-03-01T14:59:27;5.82;;;4.05;;
2888;SDS011;1453;42.708;23.282;2023-03-01T15:01:54;7.90;;;3.88;;
2888;SDS011;1453;42.708;23.282;2023-03-01T15:04:22;6.82;;;4.30;;
2888;SDS011;1453;42.708;23.282;2023-03-01T15:06:51;7.85;;;4.25;;
2888;SDS011;1453;42.708;23.282;2023-03-01T15:09:18;7.38;;;5.05;;
2888;SDS011;1453;42.708;23.282;2023-03-01T15:11:45;7.60;;;4.65;;
2888;SDS011;1453;42.708;23.282;2023-03-01T15:20:02;8.55;;;4.68;;
2888;SDS011;1453;42.708;23.282;2023-03-01T15:22:43;5.93;;;4.10;;
2888;SDS011;1453;42.708;23.282;2023-03-01T15:25:17;7.45;;;4.00;;
2888;SDS011;1453;42.708;23.282;2023-03-01T15:27:52;6.70;;;3.92;;
2888;SDS011;1453;42.708;23.282;2023-03-01T15:35:52;5.70;;;3.70;;
2888;SDS011;1453;42.708;23.282;2023-03-01T15:41:26;5.90;;;3.95;;
2888;SDS011;1453;42.708;23.282;2023-03-01T15:43:56;10.85;;;4.53;;
2888;SDS011;1453;42.708;23.282;2023-03-01T15:46:45;6.80;;;5.05;;
2888;SDS011;1453;42.708;23.282;2023-03-01T15:52:05;8.02;;;4.75;;
2888;SDS011;1453;42.708;23.282;2023-03-01T15:54:46;10.35;;;5.30;;
2888;SDS011;1453;42.708;23.282;2023-03-01T15:57:12;8.53;;;5.10;;
2888;SDS011;1453;42.708;23.282;2023-03-01T15:59:39;5.32;;;3.60;;
2888;SDS011;1453;42.708;23.282;2023-03-01T16:02:10;8.52;;;4.80;;
2888;SDS011;1453;42.708;23.282;2023-03-01T16:04:40;9.40;;;4.53;;
2888;SDS011;1453;42.708;23.282;2023-03-01T16:07:05;8.93;;;5.13;;
2888;SDS011;1453;42.708;23.282;2023-03-01T16:09:31;5.60;;;4.20;;
2888;SDS011;1453;42.708;23.282;2023-03-01T16:11:57;6.70;;;4.50;;
2888;SDS011;1453;42.708;23.282;2023-03-01T16:14:23;7.30;;;4.40;;
2888;SDS011;1453;42.708;23.282;2023-03-01T16:16:49;7.93;;;4.77;;
2888;SDS011;1453;42.708;23.282;2023-03-01T16:19:15;9.97;;;5.40;;
2888;SDS011;1453;42.708;23.282;2023-03-01T16:21:42;6.50;;;4.22;;
2888;SDS011;1453;42.708;23.282;2023-03-01T16:24:11;7.80;;;4.90;;
2888;SDS011;1453;42.708;23.282;2023-03-01T16:26:38;10.77;;;5.18;;
2888;SDS011;1453;42.708;23.282;2023-03-01T16:29:04;9.27;;;5.68;;
2888;SDS011;1453;42.708;23.282;2023-03-01T16:31:30;5.40;;;4.18;;
2888;SDS011;1453;42.708;23.282;2023-03-01T16:33:57;9.32;;;5.55;;
2888;SDS011;1453;42.708;23.282;2023-03-01T16:36:26;8.65;;;4.70;;
2888;SDS011;1453;42.708;23.282;2023-03-01T16:38:53;10.85;;;5.18;;
2888;SDS011;1453;42.708;23.282;2023-03-01T16:41:21;6.70;;;4.95;;
2888;SDS011;1453;42.708;23.282;2023-03-01T16:43:48;8.35;;;5.10;;
2888;SDS011;1453;42.708;23.282;2023-03-01T16:46:27;10.07;;;5.55;;
2888;SDS011;1453;42.708;23.282;2023-03-01T16:48:54;9.18;;;5.50;;
2888;SDS011;1453;42.708;23.282;2023-03-01T16:51:21;7.32;;;4.72;;
2888;SDS011;1453;42.708;23.282;2023-03-01T16:53:50;11.38;;;6.20;;
2888;SDS011;1453;42.708;23.282;2023-03-01T16:56:16;17.65;;;6.10;;
2888;SDS011;1453;42.708;23.282;2023-03-01T16:58:43;7.78;;;5.72;;
2888;SDS011;1453;42.708;23.282;2023-03-01T17:01:11;9.00;;;5.53;;
2888;SDS011;1453;42.708;23.282;2023-03-01T17:03:38;6.60;;;4.55;;
2888;SDS011;1453;42.708;23.282;2023-03-01T17:06:05;11.23;;;5.53;;
2888;SDS011;1453;42.708;23.282;2023-03-01T17:08:38;12.02;;;7.45;;
2888;SDS011;1453;42.708;23.282;2023-03-01T17:11:09;9.93;;;7.53;;
2888;SDS011;1453;42.708;23.282;2023-03-01T17:13:38;10.77;;;6.53;;
2888;SDS011;1453;42.708;23.282;2023-03-01T17:16:06;11.57;;;7.30;;
2888;SDS011;1453;42.708;23.282;2023-03-01T17:18:35;9.45;;;5.68;;
2888;SDS011;1453;42.708;23.282;2023-03-01T17:21:02;8.02;;;5.57;;
2888;SDS011;1453;42.708;23.282;2023-03-01T17:23:30;13.40;;;7.70;;
2888;SDS011;1453;42.708;23.282;2023-03-01T17:25:57;12.45;;;7.32;;
2888;SDS011;1453;42.708;23.282;2023-03-01T17:28:23;13.80;;;7.20;;
2888;SDS011;1453;42.708;23.282;2023-03-01T17:30:52;9.80;;;7.18;;
2888;SDS011;1453;42.708;23.282;2023-03-01T17:33:18;12.20;;;7.82;;
2888;SDS011;1453;42.708;23.282;2023-03-01T17:35:45;12.07;;;7.35;;
2888;SDS011;1453;42.708;23.282;2023-03-01T17:38:12;11.73;;;7.93;;
2888;SDS011;1453;42.708;23.282;2023-03-01T17:40:41;11.50;;;7.53;;
2888;SDS011;1453;42.708;23.282;2023-03-01T17:43:12;15.43;;;6.70;;
2888;SDS011;1453;42.708;23.282;2023-03-01T17:45:39;12.10;;;7.22;;
2888;SDS011;1453;42.708;23.282;2023-03-01T17:48:08;12.32;;;8.82;;
2888;SDS011;1453;42.708;23.282;2023-03-01T17:50:35;16.92;;;9.10;;
2888;SDS011;1453;42.708;23.282;2023-03-01T17:53:04;16.63;;;9.00;;
2888;SDS011;1453;42.708;23.282;2023-03-01T17:55:34;15.32;;;9.27;;